Time;durP1;ratioP1;P1;durP2;ratioP2;P2;SDS_P1;SDS_P2;PMS_P1;PMS_P2;Temp;Humidity;BMP_temperature;BMP_pressure;BME280_temperature;BME280_humidity;BME280_pressure;Samples;Min_cycle;Max_cycle;Signal;HPM_P1;HPM_P2
2023/07/15 00:01:54;;;;;;;1999.90;999.90;;;;;;;19.15;100.00;97966.13;5092570;28;20036;-74
2023/07/15 00:04:19;;;;;;;1999.90;999.90;;;;;;;19.11;100.00;97969.94;5092098;28;20027;-74
2023/07/15 00:06:44;;;;;;;1999.90;999.90;;;;;;;19.19;100.00;97980.09;5092141;28;20024;-76
2023/07/15 00:09:10;;;;;;;1999.90;999.90;;;;;;;19.16;100.00;97978.84;5090357;28;20060;-76
2023/07/15 00:11:37;;;;;;;1999.90;999.90;;;;;;;19.10;100.00;97973.91;5092093;28;20119;-78
2023/07/15 00:14:12;;;;;;;1999.90;999.90;;;;;;;19.06;100.00;97967.44;5085530;28;20397;-75
2023/07/15 00:16:38;;;;;;;1999.90;999.90;;;;;;;19.07;100.00;97969.88;5086375;28;20059;-76
2023/07/15 00:19:05;;;;;;;1999.90;999.90;;;;;;;19.08;100.00;97976.19;5092315;28;20432;-76
2023/07/15 00:21:31;;;;;;;1999.90;999.90;;;;;;;18.95;100.00;97975.41;5075589;28;20027;-73
2023/07/15 00:23:57;;;;;;;1999.90;999.90;;;;;;;18.90;100.00;97967.34;5092776;28;20020;-74
2023/07/15 00:26:29;;;;;;;1999.90;999.90;;;;;;;18.82;100.00;97975.81;5096211;28;20426;-75
2023/07/15 00:28:55;;;;;;;1999.90;999.90;;;;;;;18.82;100.00;97976.63;5087632;28;20101;-75
2023/07/15 00:31:22;;;;;;;1999.90;999.90;;;;;;;18.85;100.00;97977.88;5091551;28;20028;-73
2023/07/15 00:33:48;;;;;;;1999.90;999.90;;;;;;;18.82;100.00;97976.63;5093060;28;20030;-75
2023/07/15 00:36:14;;;;;;;1999.90;999.90;;;;;;;18.97;100.00;97973.13;5094723;28;20383;-75
2023/07/15 00:38:41;;;;;;;1999.90;999.90;;;;;;;19.08;100.00;97977.00;5094123;28;20020;-75
2023/07/15 00:41:18;;;;;;;1999.90;999.90;;;;;;;18.97;100.00;97972.31;5093354;28;20032;-77
2023/07/15 00:43:56;;;;;;;1999.90;999.90;;;;;;;18.85;100.00;97975.91;5095339;28;20071;-73
2023/07/15 00:46:22;;;;;;;1999.90;999.90;;;;;;;18.80;100.00;97972.53;5095442;28;20111;-75
2023/07/15 00:49:12;;;;;;;1999.90;999.90;;;;;;;18.85;100.00;97970.38;5093270;28;20032;-75
2023/07/15 00:51:40;;;;;;;1999.90;999.90;;;;;;;18.86;100.00;97968.41;5090433;28;20036;-74
2023/07/15 00:54:07;;;;;;;1999.90;999.90;;;;;;;18.78;100.00;97967.38;5091639;28;20036;-74
2023/07/15 00:56:34;;;;;;;1999.90;999.90;;;;;;;18.73;100.00;97964.84;5091619;28;20034;-73
2023/07/15 00:59:00;;;;;;;1999.90;999.90;;;;;;;18.75;100.00;97962.53;5091697;28;20050;-74
2023/07/15 01:01:26;;;;;;;1999.90;999.90;;;;;;;18.70;100.00;97962.78;5092136;28;20461;-75
2023/07/15 01:03:54;;;;;;;1999.90;999.90;;;;;;;18.76;100.00;97964.16;5091624;28;20472;-74
2023/07/15 01:06:20;;;;;;;1999.90;999.90;;;;;;;18.76;100.00;97953.06;5091402;28;20496;-73
2023/07/15 01:08:46;;;;;;;1999.90;999.90;;;;;;;18.75;100.00;97958.94;5091591;28;20103;-75
2023/07/15 01:11:12;;;;;;;1999.90;999.90;;;;;;;18.78;100.00;97967.38;5091927;28;20107;-75
2023/07/15 01:13:37;;;;;;;1999.90;999.90;;;;;;;18.69;100.00;97953.66;5091921;28;20110;-74
2023/07/15 01:16:03;;;;;;;1999.90;999.90;;;;;;;18.54;100.00;97945.22;5090356;28;20036;-73
2023/07/15 01:18:29;;;;;;;1999.90;999.90;;;;;;;18.72;100.00;97963.22;5090010;28;20552;-74
2023/07/15 01:20:58;;;;;;;1999.90;999.90;;;;;;;18.59;100.00;97953.28;5091373;28;20116;-72
2023/07/15 01:23:24;;;;;;;1999.90;999.90;;;;;;;18.40;100.00;97928.91;5091442;28;20032;-74
2023/07/15 01:25:49;;;;;;;1999.90;999.90;;;;;;;18.34;100.00;97926.72;5091414;28;20097;-75
2023/07/15 01:28:15;;;;;;;1999.90;999.90;;;;;;;18.44;100.00;97953.97;5091185;28;20504;-77
2023/07/15 01:30:40;;;;;;;1999.90;999.90;;;;;;;18.29;100.00;97938.84;5094103;28;20024;-74
2023/07/15 01:33:05;;;;;;;1999.90;999.90;;;;;;;18.25;100.00;97942.66;5093376;28;20066;-75
2023/07/15 01:35:30;;;;;;;1999.90;999.90;;;;;;;18.23;100.00;97944.97;5093165;28;20103;-75
2023/07/15 01:37:56;;;;;;;1999.90;999.90;;;;;;;18.33;100.00;97950.84;5092654;28;20060;-75
2023/07/15 01:40:21;;;;;;;1999.90;999.90;;;;;;;18.13;100.00;97924.91;5090699;28;20073;-77
2023/07/15 01:42:46;;;;;;;1999.90;999.90;;;;;;;18.17;100.00;97931.34;5090903;28;20036;-75
2023/07/15 01:45:12;;;;;;;1999.90;999.90;;;;;;;18.26;100.00;97933.19;5090987;28;20062;-74
2023/07/15 01:47:37;;;;;;;1999.90;999.90;;;;;;;18.12;100.00;97928.00;5089456;28;20112;-72
2023/07/15 01:50:06;;;;;;;1999.90;999.90;;;;;;;18.09;100.00;97923.16;5090992;28;20032;-73
2023/07/15 01:52:32;;;;;;;1999.90;999.90;;;;;;;18.13;100.00;97932.38;5089311;28;20369;-74
2023/07/15 01:54:57;;;;;;;1999.90;999.90;;;;;;;18.16;100.00;97929.75;5089708;28;20476;-78
2023/07/15 01:57:26;;;;;;;1999.90;999.90;;;;;;;18.12;100.00;97930.75;5090698;28;20110;-74
2023/07/15 01:59:57;;;;;;;1999.90;999.90;;;;;;;18.07;100.00;97931.00;5091232;28;20073;-73
2023/07/15 02:02:26;;;;;;;1999.90;999.90;;;;;;;18.03;100.00;97936.41;5088816;28;20035;-74
2023/07/15 02:04:52;;;;;;;1999.90;999.90;;;;;;;18.04;100.00;97934.47;5090128;28;20055;-75
2023/07/15 02:07:17;;;;;;;1999.90;999.90;;;;;;;18.01;100.00;97935.94;5090993;28;20123;-74
2023/07/15 02:09:42;;;;;;;1999.90;999.90;;;;;;;17.93;100.00;97920.25;5095454;28;20024;-78
2023/07/15 02:12:08;;;;;;;1999.90;999.90;;;;;;;18.00;100.00;97933.53;5093401;28;20056;-75
2023/07/15 02:14:36;;;;;;;1999.90;999.90;;;;;;;18.04;100.00;97935.25;5090992;28;20051;-77
2023/07/15 02:17:03;;;;;;;1999.90;999.90;;;;;;;17.91;100.00;97939.16;5090915;28;20107;-77
2023/07/15 02:19:30;;;;;;;1999.90;999.90;;;;;;;17.88;100.00;97925.19;5090828;28;20031;-77
2023/07/15 02:21:56;;;;;;;1999.90;999.90;;;;;;;17.98;100.00;97938.59;5089589;28;20047;-77
2023/07/15 02:24:22;;;;;;;1999.90;999.90;;;;;;;17.84;100.00;97927.84;5090813;28;20024;-75
2023/07/15 02:26:47;;;;;;;1999.90;999.90;;;;;;;17.99;100.00;97941.00;5090693;28;20043;-74
2023/07/15 02:29:13;;;;;;;1999.90;999.90;;;;;;;17.93;100.00;97941.56;5090863;28;20044;-80
2023/07/15 02:31:38;;;;;;;1999.90;999.90;;;;;;;18.03;100.00;97941.94;5090767;28;20024;-76
2023/07/15 02:34:04;;;;;;;1999.90;999.90;;;;;;;17.88;100.00;97934.31;5094496;28;20076;-77
2023/07/15 02:36:30;;;;;;;1999.90;999.90;;;;;;;17.82;100.00;97930.16;5093251;28;20036;-76
2023/07/15 02:38:55;;;;;;;1999.90;999.90;;;;;;;17.99;100.00;97941.00;5093392;28;20165;-76
2023/07/15 02:41:21;;;;;;;1999.90;999.90;;;;;;;17.97;100.00;97943.31;5093106;28;20122;-76
2023/07/15 02:43:46;;;;;;;1999.90;999.90;;;;;;;18.01;100.00;97944.22;5094392;28;20079;-75
2023/07/15 02:46:11;;;;;;;1999.90;999.90;;;;;;;17.83;100.00;97925.41;5094360;28;20480;-76
2023/07/15 02:48:37;;;;;;;1999.90;999.90;;;;;;;17.85;100.00;97935.00;5094290;28;20051;-76
2023/07/15 02:51:02;;;;;;;1999.90;999.90;;;;;;;17.88;100.00;97939.84;5092872;28;20024;-76
2023/07/15 02:53:27;;;;;;;1999.90;999.90;;;;;;;17.82;100.00;97945.94;5093935;28;20034;-76
2023/07/15 02:55:53;;;;;;;1999.90;999.90;;;;;;;17.67;100.00;97933.56;5093074;28;20085;-75
2023/07/15 02:58:18;;;;;;;1999.90;999.90;;;;;;;17.84;100.00;97951.94;5092964;28;20165;-78
2023/07/15 03:00:44;;;;;;;1999.90;999.90;;;;;;;17.80;100.00;97948.22;5094590;28;20032;-75
2023/07/15 03:03:10;;;;;;;1999.90;999.90;;;;;;;17.89;100.00;97946.97;5092877;28;20039;-77
2023/07/15 03:05:36;;;;;;;1999.90;999.90;;;;;;;17.84;100.00;97941.69;5093888;28;20027;-75
2023/07/15 03:08:01;;;;;;;1999.90;999.90;;;;;;;17.99;100.00;97957.63;5094065;28;20488;-78
2023/07/15 03:10:27;;;;;;;1999.90;999.90;;;;;;;17.89;100.00;97946.16;5093968;28;20114;-75
2023/07/15 03:12:52;;;;;;;1999.90;999.90;;;;;;;17.90;100.00;97951.38;5092530;28;20032;-76
2023/07/15 03:15:19;;;;;;;1999.90;999.90;;;;;;;17.77;100.00;97946.16;5092633;28;20484;-77
2023/07/15 03:17:44;;;;;;;1999.90;999.90;;;;;;;17.62;100.00;97933.78;5092653;28;20043;-75
2023/07/15 03:20:21;;;;;;;1999.90;999.90;;;;;;;17.72;100.00;97958.25;5093876;28;20472;-75
2023/07/15 03:22:48;;;;;;;1999.90;999.90;;;;;;;17.63;100.00;97957.53;5093634;28;20035;-75
2023/07/15 03:25:14;;;;;;;1999.90;999.90;;;;;;;17.39;100.00;97938.03;5094072;28;20023;-78
2023/07/15 03:27:40;;;;;;;1999.90;999.90;;;;;;;17.41;100.00;97946.81;5093981;28;20028;-78
2023/07/15 03:30:10;;;;;;;1999.90;999.90;;;;;;;17.52;100.00;97964.59;5092756;28;20087;-75
2023/07/15 03:32:36;;;;;;;1999.90;999.90;;;;;;;17.59;100.00;97970.44;5093276;28;20119;-75
2023/07/15 03:35:03;;;;;;;1999.90;999.90;;;;;;;17.54;100.00;97951.25;5093621;28;20400;-75
2023/07/15 03:37:30;;;;;;;1999.90;999.90;;;;;;;17.82;100.00;97959.78;5092375;28;20031;-76
2023/07/15 03:39:55;;;;;;;1999.90;999.90;;;;;;;18.01;100.00;97941.47;5096107;28;20040;-75
2023/07/15 03:42:21;;;;;;;1999.90;999.90;;;;;;;18.32;100.00;97959.50;5098230;28;20043;-78
2023/07/15 03:44:46;;;;;;;1999.90;999.90;;;;;;;18.43;100.00;97950.38;5092701;28;20024;-75
2023/07/15 03:47:11;;;;;;;1999.90;999.90;;;;;;;18.53;100.00;97943.59;5075034;28;20028;-75
2023/07/15 03:49:37;;;;;;;1999.90;999.90;;;;;;;19.11;100.00;97959.66;5092239;28;20035;-76
2023/07/15 03:52:02;;;;;;;1999.90;999.90;;;;;;;19.62;100.00;97957.19;5091940;28;20024;-75
2023/07/15 03:54:28;;;;;;;1999.90;999.90;;;;;;;20.02;100.00;97957.91;5097561;28;20123;-76
2023/07/15 03:56:53;;;;;;;1999.90;999.90;;;;;;;19.99;100.00;97978.06;5091981;28;20423;-75
2023/07/15 03:59:18;;;;;;;1999.90;999.90;;;;;;;20.40;100.00;97968.44;5092713;28;20127;-75
2023/07/15 04:01:44;;;;;;;1999.90;999.90;;;;;;;20.73;100.00;97985.53;5091322;28;20380;-77
2023/07/15 04:04:09;;;;;;;1999.90;999.90;;;;;;;20.36;100.00;97972.28;5095155;28;20669;-76
2023/07/15 04:06:35;;;;;;;1999.90;999.90;;;;;;;20.30;100.00;97988.41;5095094;28;20075;-76
2023/07/15 04:09:01;;;;;;;1999.90;999.90;;;;;;;20.40;100.00;97975.94;5094339;28;20076;-76
2023/07/15 04:11:26;;;;;;;1999.90;999.90;;;;;;;20.29;100.00;97987.63;5091285;28;20028;-76
2023/07/15 04:13:52;;;;;;;1999.90;999.90;;;;;;;19.90;100.00;97991.28;5091169;28;20078;-75
2023/07/15 04:16:17;;;;;;;1999.90;999.90;;;;;;;19.61;100.00;97984.13;5091034;28;20039;-77
2023/07/15 04:18:43;;;;;;;1999.90;999.90;;;;;;;19.59;100.00;97988.44;5091367;28;20553;-75
2023/07/15 04:21:08;;;;;;;1999.90;999.90;;;;;;;19.81;100.00;97993.44;5092485;28;20028;-76
2023/07/15 04:23:37;;;;;;;1999.90;999.90;;;;;;;19.77;100.00;97973.88;5092432;28;20031;-78
2023/07/15 04:26:02;;;;;;;1999.90;999.90;;;;;;;20.06;100.00;97986.56;5092395;28;20082;-76
2023/07/15 04:28:28;;;;;;;1999.90;999.90;;;;;;;20.86;100.00;97991.81;5085138;28;20505;-77
2023/07/15 04:30:56;;;;;;;1999.90;999.90;;;;;;;21.44;100.00;98003.03;5085131;28;20031;-76
2023/07/15 04:33:23;;;;;;;1999.90;999.90;;;;;;;21.06;100.00;97987.88;5090774;28;20028;-76
2023/07/15 04:35:48;;;;;;;1999.90;999.90;;;;;;;20.96;100.00;97994.00;5070508;28;20423;-76
2023/07/15 04:38:13;;;;;;;1999.90;999.90;;;;;;;20.79;100.00;97989.66;5071783;28;20027;-74
2023/07/15 04:40:39;;;;;;;1999.90;999.90;;;;;;;21.45;100.00;98005.47;5070599;28;20028;-74
2023/07/15 04:43:04;;;;;;;1999.90;999.90;;;;;;;22.38;100.00;98004.16;5072073;28;20024;-79
2023/07/15 04:45:31;;;;;;;1999.90;999.90;;;;;;;22.98;100.00;98004.38;5077799;28;20024;-81
2023/07/15 04:47:57;;;;;;;1999.90;999.90;;;;;;;22.67;100.00;98001.88;5089531;28;20028;-73
2023/07/15 04:50:23;;;;;;;1999.90;999.90;;;;;;;21.26;100.00;98003.47;5090338;28;20026;-75
2023/07/15 04:52:48;;;;;;;1999.90;999.90;;;;;;;20.58;100.00;98000.25;5091787;28;20126;-73
2023/07/15 04:55:14;;;;;;;1999.90;999.90;;;;;;;20.44;100.00;97999.09;5091213;28;20028;-74
2023/07/15 04:57:40;;;;;;;1999.90;999.90;;;;;;;20.59;100.00;97995.50;5090333;28;20035;-73
2023/07/15 05:00:10;;;;;;;1999.90;999.90;;;;;;;21.34;100.00;98007.22;5091819;28;20024;-74
2023/07/15 05:02:36;;;;;;;1999.90;999.90;;;;;;;21.77;100.00;98018.06;5099413;28;20024;-85
2023/07/15 05:05:02;;;;;;;1999.90;999.90;;;;;;;22.10;100.00;98012.00;5096470;28;20073;-87
2023/07/15 05:07:27;;;;;;;1999.90;999.90;;;;;;;21.45;100.00;98010.22;5095524;28;20498;-83
2023/07/15 05:09:54;;;;;;;1999.90;999.90;;;;;;;21.08;100.00;98012.56;5092782;28;20020;-85
2023/07/15 05:12:19;;;;;;;1999.90;999.90;;;;;;;20.88;100.00;98002.56;5094657;28;20089;-84
2023/07/15 05:14:44;;;;;;;1999.90;999.90;;;;;;;20.64;100.00;98006.34;5093078;28;20740;-83
2023/07/15 05:17:10;;;;;;;1999.90;999.90;;;;;;;20.38;100.00;98000.53;5096287;28;20438;-88
2023/07/15 05:19:35;;;;;;;1999.90;999.90;;;;;;;19.88;100.00;97999.19;5096194;28;20051;-81
2023/07/15 05:22:01;;;;;;;1999.90;999.90;;;;;;;19.80;100.00;98005.69;5096173;28;20035;-84
2023/07/15 05:24:28;;;;;;;1999.90;999.90;;;;;;;20.24;100.00;98004.50;5093125;28;20131;-82
2023/07/15 05:26:54;;;;;;;1999.90;999.90;;;;;;;20.34;100.00;98007.94;5091662;28;20039;-83
2023/07/15 05:29:22;;;;;;;1999.90;999.90;;;;;;;20.49;100.00;98009.94;5092192;28;20568;-74
2023/07/15 05:31:48;;;;;;;1999.90;999.90;;;;;;;20.70;100.00;98010.47;5091939;28;20032;-75
2023/07/15 05:34:14;;;;;;;1999.90;999.90;;;;;;;20.75;100.00;98013.78;5073293;28;20581;-76
2023/07/15 05:36:40;;;;;;;1999.90;999.90;;;;;;;20.79;100.00;98013.88;5093270;28;20028;-75
2023/07/15 05:39:05;;;;;;;1999.90;999.90;;;;;;;20.59;100.00;98010.19;5094476;28;20024;-75
2023/07/15 05:41:30;;;;;;;1999.90;999.90;;;;;;;20.60;100.00;98011.00;5090652;28;20032;-75
2023/07/15 05:43:56;;;;;;;1999.90;999.90;;;;;;;20.35;100.00;98009.56;5090654;28;20024;-75
2023/07/15 05:46:21;;;;;;;1999.90;999.90;;;;;;;20.68;100.00;98010.00;5090553;28;20103;-75
2023/07/15 05:48:46;;;;;;;1999.90;999.90;;;;;;;21.23;100.00;98008.97;5095658;28;20028;-75
2023/07/15 05:51:12;;;;;;;1999.90;999.90;;;;;;;21.50;100.00;98009.94;5095501;28;20031;-75
2023/07/15 05:53:38;;;;;;;1999.90;999.90;;;;;;;21.44;100.00;98016.97;5093744;28;20024;-76
2023/07/15 05:56:03;;;;;;;1999.90;999.90;;;;;;;21.16;100.00;98017.16;5093577;28;20032;-76
2023/07/15 05:58:29;;;;;;;1999.90;999.90;;;;;;;21.21;100.00;98014.88;5093974;28;20048;-77
2023/07/15 06:00:54;;;;;;;1999.90;999.90;;;;;;;21.46;100.00;98011.84;5093765;28;20055;-76
2023/07/15 06:03:19;;;;;;;1999.90;999.90;;;;;;;21.46;100.00;98009.06;5092260;28;20020;-74
2023/07/15 06:05:45;;;;;;;1999.90;999.90;;;;;;;21.55;100.00;98013.22;5090496;28;20388;-76
2023/07/15 06:08:10;;;;;;;1999.90;999.90;;;;;;;21.49;100.00;98017.47;5090014;28;20107;-76
2023/07/15 06:10:35;;;;;;;1999.90;999.90;;;;;;;21.90;100.00;98009.63;5090638;28;20038;-76
2023/07/15 06:13:01;;;;;;;1999.90;999.90;;;;;;;21.92;100.00;98008.06;5090332;28;20081;-75
2023/07/15 06:15:27;;;;;;;1999.90;999.90;;;;;;;21.70;100.00;98014.34;5090365;28;20039;-74
2023/07/15 06:17:52;;;;;;;1999.90;999.90;;;;;;;21.85;100.00;98005.09;5090019;28;20072;-75
2023/07/15 06:20:18;;;;;;;1999.90;999.90;;;;;;;21.99;100.00;98012.97;5089999;28;20090;-74
2023/07/15 06:22:44;;;;;;;1999.90;999.90;;;;;;;22.28;100.00;98004.75;5090570;28;20036;-75
2023/07/15 06:25:11;;;;;;;1999.90;999.90;;;;;;;22.39;100.00;98016.91;5090322;28;20024;-75
2023/07/15 06:27:37;;;;;;;1999.90;999.90;;;;;;;22.18;100.00;98010.94;5091246;28;20020;-76
2023/07/15 06:30:04;;;;;;;1999.90;999.90;;;;;;;22.48;100.00;98024.22;5093168;28;20047;-77
2023/07/15 06:32:29;;;;;;;1999.90;999.90;;;;;;;22.65;100.00;98029.28;5092623;28;20032;-75
2023/07/15 06:34:55;;;;;;;1999.90;999.90;;;;;;;22.53;100.00;98019.13;5090509;28;20020;-75
2023/07/15 06:37:20;;;;;;;1999.90;999.90;;;;;;;22.73;100.00;98017.13;5090329;28;20020;-74
2023/07/15 06:39:46;;;;;;;1999.90;999.90;;;;;;;22.76;100.00;98024.75;5090342;28;20393;-75
2023/07/15 06:42:11;;;;;;;1999.90;999.90;;;;;;;22.70;100.00;98015.06;5089094;28;20389;-74
2023/07/15 06:44:36;;;;;;;1999.90;999.90;;;;;;;23.05;100.00;98020.41;5090316;28;20028;-74
2023/07/15 06:47:02;;;;;;;1999.90;999.90;;;;;;;23.24;100.00;98034.25;5090584;28;20055;-74
2023/07/15 06:49:27;;;;;;;1999.90;999.90;;;;;;;23.26;100.00;98023.53;5090490;28;20060;-74
2023/07/15 06:51:52;;;;;;;1999.90;999.90;;;;;;;24.06;100.00;98025.00;5090246;28;20043;-75
2023/07/15 06:54:18;;;;;;;1999.90;999.90;;;;;;;23.92;100.00;98032.03;5090258;28;20081;-75
2023/07/15 06:56:44;;;;;;;1999.90;999.90;;;;;;;24.03;100.00;98029.34;5089040;28;20442;-75
2023/07/15 06:59:09;;;;;;;1999.90;999.90;;;;;;;24.30;100.00;98019.69;5090601;28;20481;-74
2023/07/15 07:01:35;;;;;;;1999.90;999.90;;;;;;;24.53;100.00;98019.50;5090805;28;20107;-77
2023/07/15 07:04:00;;;;;;;1999.90;999.90;;;;;;;24.50;100.00;98017.47;5090417;28;20032;-74
2023/07/15 07:06:27;;;;;;;1999.90;999.90;;;;;;;24.19;100.00;98015.97;5090242;28;20077;-73
2023/07/15 07:08:54;;;;;;;1999.90;999.90;;;;;;;24.18;100.00;98017.19;5090201;28;20476;-74
2023/07/15 07:11:19;;;;;;;1999.90;999.90;;;;;;;24.39;100.00;98010.97;5090077;28;20527;-75
2023/07/15 07:13:45;;;;;;;1999.90;999.90;;;;;;;24.35;100.00;98010.13;5088777;28;20028;-74
2023/07/15 07:16:11;;;;;;;1999.90;999.90;;;;;;;24.61;100.00;98017.59;5089413;28;20496;-74
2023/07/15 07:18:36;;;;;;;1999.90;999.90;;;;;;;24.90;100.00;98008.28;5095237;28;20044;-79
2023/07/15 07:21:01;;;;;;;1999.90;999.90;;;;;;;24.81;100.00;98018.97;5090582;28;20024;-75
2023/07/15 07:23:29;;;;;;;1999.90;999.90;;;;;;;24.65;100.00;98012.81;5093368;28;20032;-74
2023/07/15 07:25:55;;;;;;;1999.90;999.90;;;;;;;24.77;100.00;98012.53;5095056;28;20058;-76
2023/07/15 07:28:23;;;;;;;1999.90;999.90;;;;;;;25.28;100.00;98016.13;5092862;28;20040;-74
2023/07/15 07:30:49;;;;;;;1999.90;999.90;;;;;;;25.56;100.00;98021.91;5093480;28;20028;-74
2023/07/15 07:33:14;;;;;;;1999.90;999.90;;;;;;;25.99;100.00;98019.31;5093071;28;20531;-73
2023/07/15 07:35:39;;;;;;;1999.90;999.90;;;;;;;26.35;100.00;98011.81;5093200;28;20024;-76
2023/07/15 07:38:05;;;;;;;1999.90;999.90;;;;;;;26.72;100.00;98015.06;5096481;28;20024;-80
2023/07/15 07:40:33;;;;;;;1999.90;999.90;;;;;;;26.99;100.00;98009.88;5096565;28;20030;-80
2023/07/15 07:42:58;;;;;;;1999.90;999.90;;;;;;;27.05;100.00;98008.28;5098263;28;20074;-80
2023/07/15 07:45:23;;;;;;;1999.90;999.90;;;;;;;26.59;100.00;98002.66;5101249;28;20020;-72
2023/07/15 07:47:49;;;;;;;1999.90;999.90;;;;;;;26.17;100.00;98003.38;5094301;28;20031;-73
2023/07/15 07:50:14;;;;;;;1999.90;999.90;;;;;;;25.90;100.00;98002.06;5093772;28;20012;-74
2023/07/15 07:52:39;;;;;;;1999.90;999.90;;;;;;;25.96;100.00;98003.28;5093688;28;20028;-72
2023/07/15 07:55:05;;;;;;;1999.90;999.90;;;;;;;25.83;100.00;98010.44;5100429;28;20061;-83
2023/07/15 07:57:31;;;;;;;1999.90;999.90;;;;;;;25.77;100.00;98000.81;5105370;28;20491;-81
2023/07/15 07:59:56;;;;;;;1999.90;999.90;;;;;;;25.71;100.00;98002.38;5099867;28;20028;-84
2023/07/15 08:02:21;;;;;;;1999.90;999.90;;;;;;;26.06;100.00;98005.31;5099889;28;20024;-87
2023/07/15 08:04:49;;;;;;;1999.90;999.90;;;;;;;26.11;100.00;97999.31;5109180;28;20024;-75
2023/07/15 08:07:15;;;;;;;1999.90;999.90;;;;;;;26.29;100.00;97994.56;5104433;28;20388;-77
2023/07/15 08:09:40;;;;;;;1999.90;999.90;;;;;;;26.34;100.00;97997.00;5108814;28;20024;-83
2023/07/15 08:12:08;;;;;;;1999.90;999.90;;;;;;;26.84;100.00;97997.06;5105484;28;20099;-83
2023/07/15 08:14:33;;;;;;;1999.90;999.90;;;;;;;26.85;100.00;97998.66;5099300;28;20628;-74
2023/07/15 08:16:59;;;;;;;1999.90;999.90;;;;;;;27.15;100.00;97999.03;5092141;28;20016;-74
2023/07/15 08:19:24;;;;;;;1999.90;999.90;;;;;;;27.37;100.00;97994.16;5092875;28;20032;-79
2023/07/15 08:21:49;;;;;;;1999.90;999.90;;;;;;;26.85;100.00;98004.25;5095170;28;20389;-73
2023/07/15 08:24:15;;;;;;;1999.90;999.90;;;;;;;27.46;100.00;98006.63;5093233;28;20361;-78
2023/07/15 08:26:40;;;;;;;1999.90;999.90;;;;;;;27.78;100.00;97997.28;5092909;28;20031;-73
2023/07/15 08:29:05;;;;;;;1999.90;999.90;;;;;;;28.05;92.99;98001.19;5091613;28;20500;-75
2023/07/15 08:31:31;;;;;;;1999.90;999.90;;;;;;;28.08;88.02;98003.19;5092451;28;20088;-75
2023/07/15 08:33:56;;;;;;;1999.90;999.90;;;;;;;27.93;85.94;98002.44;5095159;28;20115;-74
2023/07/15 08:36:22;;;;;;;1999.90;999.90;;;;;;;27.74;85.88;98002.91;5093194;28;20138;-74
2023/07/15 08:38:47;;;;;;;1999.90;999.90;;;;;;;27.58;85.48;97992.13;5093363;28;20537;-74
2023/07/15 08:41:14;;;;;;;1999.90;999.90;;;;;;;27.43;85.16;97984.97;5092712;28;20119;-75
2023/07/15 08:43:43;;;;;;;1999.90;999.90;;;;;;;27.78;84.53;97988.84;5092589;28;20069;-78
2023/07/15 08:46:23;;;;;;;1999.90;999.90;;;;;;;27.79;81.11;97990.44;5095536;28;20024;-77
2023/07/15 08:48:49;;;;;;;1999.90;999.90;;;;;;;28.62;77.56;97979.94;5087927;28;20039;-76
2023/07/15 08:51:15;;;;;;;1999.90;999.90;;;;;;;28.68;73.79;97998.00;5093933;28;20027;-78
2023/07/15 08:53:42;;;;;;;1999.90;999.90;;;;;;;28.97;73.26;97992.13;5093197;28;20020;-73
2023/07/15 08:56:10;;;;;;;1999.90;999.90;;;;;;;29.49;67.65;97993.63;5093309;28;20028;-78
2023/07/15 08:58:35;;;;;;;1999.90;999.90;;;;;;;29.57;65.95;97997.97;5093059;28;20464;-78
2023/07/15 09:01:01;;;;;;;1999.90;999.90;;;;;;;29.71;65.41;97991.38;5095904;28;20027;-81
2023/07/15 09:03:27;;;;;;;1999.90;999.90;;;;;;;30.04;64.29;97984.91;5104042;28;20069;-78
2023/07/15 09:05:53;;;;;;;1999.90;999.90;;;;;;;30.18;64.09;97992.41;5092575;28;20067;-78
2023/07/15 09:08:18;;;;;;;1999.90;999.90;;;;;;;30.24;63.43;98002.81;5093332;28;20106;-75
2023/07/15 09:10:57;;;;;;;1999.90;999.90;;;;;;;29.61;64.42;97998.75;5093009;28;20048;-77
2023/07/15 09:13:24;;;;;;;1999.90;999.90;;;;;;;29.41;64.91;97989.31;5091538;28;20063;-78
2023/07/15 09:15:50;;;;;;;1999.90;999.90;;;;;;;28.99;65.90;97989.69;5092641;28;20082;-78
2023/07/15 09:18:15;;;;;;;1999.90;999.90;;;;;;;28.84;67.93;97989.03;5092749;28;20439;-79
2023/07/15 09:20:40;;;;;;;1999.90;999.90;;;;;;;28.98;66.85;97977.63;5092948;28;20480;-77
2023/07/15 09:23:06;;;;;;;1999.90;999.90;;;;;;;29.40;66.08;97981.25;5092380;28;20020;-76
2023/07/15 09:25:31;;;;;;;1999.90;999.90;;;;;;;29.45;64.64;97984.41;5091476;28;20081;-76
2023/07/15 09:27:57;;;;;;;1999.90;999.90;;;;;;;29.87;63.51;97993.63;5091986;28;20043;-72
2023/07/15 09:30:23;;;;;;;1999.90;999.90;;;;;;;30.24;60.28;97996.34;5092556;28;20466;-75
2023/07/15 09:32:48;;;;;;;1999.90;999.90;;;;;;;30.06;60.22;97992.97;5091726;28;20118;-78
2023/07/15 09:35:14;;;;;;;1999.90;999.90;;;;;;;30.11;60.01;97995.31;5091782;28;20028;-77
2023/07/15 09:37:40;;;;;;;1999.90;999.90;;;;;;;30.57;58.53;97997.53;5092024;28;20042;-80
2023/07/15 09:40:08;;;;;;;1999.90;999.90;;;;;;;30.75;58.69;97986.72;5093926;28;20480;-82
2023/07/15 09:42:52;;;;;;;1999.90;999.90;;;;;;;31.08;56.72;97987.81;5092323;28;20128;-79
2023/07/15 09:45:45;;;;;;;1999.90;999.90;;;;;;;31.30;56.03;97991.84;5092555;28;20024;-78
2023/07/15 09:48:12;;;;;;;1999.90;999.90;;;;;;;31.57;55.89;97986.13;5088066;28;20040;-76
2023/07/15 09:50:39;;;;;;;1999.90;999.90;;;;;;;31.41;55.49;97995.28;5090142;28;20036;-75
2023/07/15 09:53:06;;;;;;;1999.90;999.90;;;;;;;30.83;51.99;97987.41;5089769;28;20038;-74
2023/07/15 09:55:33;;;;;;;1999.90;999.90;;;;;;;31.47;50.82;97987.91;5091016;28;20052;-78
2023/07/15 09:58:24;;;;;;;1999.90;999.90;;;;;;;31.46;50.71;97986.28;5090866;28;20076;-78
2023/07/15 10:01:11;;;;;;;1999.90;999.90;;;;;;;30.80;51.87;97983.41;5090039;28;20043;-76
2023/07/15 10:04:00;;;;;;;1999.90;999.90;;;;;;;30.42;55.07;97977.16;5091000;28;20083;-77
2023/07/15 10:06:26;;;;;;;1999.90;999.90;;;;;;;30.74;53.95;97973.81;5092651;28;20551;-77
2023/07/15 10:08:52;;;;;;;1999.90;999.90;;;;;;;31.27;52.37;97992.72;5089249;28;20031;-75
2023/07/15 10:11:18;;;;;;;1999.90;999.90;;;;;;;31.02;52.39;97984.69;5088223;28;20387;-76
2023/07/15 10:13:43;;;;;;;1999.90;999.90;;;;;;;30.99;53.50;97979.88;5089480;28;20119;-76
2023/07/15 10:16:09;;;;;;;1999.90;999.90;;;;;;;31.55;52.25;97961.09;5090759;28;20036;-76
2023/07/15 10:18:34;;;;;;;1999.90;999.90;;;;;;;31.64;51.85;97974.66;5091598;28;20028;-76
2023/07/15 10:21:05;;;;;;;1999.90;999.90;;;;;;;31.16;53.44;97969.50;5091404;28;20361;-74
2023/07/15 10:23:32;;;;;;;1999.90;999.90;;;;;;;31.38;53.99;97967.88;5092048;28;20020;-74
2023/07/15 10:26:06;;;;;;;1999.90;999.90;;;;;;;31.84;51.73;97973.41;5090812;28;20439;-74
2023/07/15 10:28:39;;;;;;;1999.90;999.90;;;;;;;32.17;51.11;97973.56;5090410;28;20074;-76
2023/07/15 10:31:09;;;;;;;1999.90;999.90;;;;;;;32.11;50.88;97975.31;5090669;28;20058;-79
2023/07/15 10:33:50;;;;;;;1999.90;999.90;;;;;;;32.31;48.89;97968.38;5092257;28;20039;-78
2023/07/15 10:36:35;;;;;;;1999.90;999.90;;;;;;;32.60;48.19;97962.06;5074740;28;20453;-79
2023/07/15 10:39:16;;;;;;;1999.90;999.90;;;;;;;31.97;49.59;97964.25;5090105;28;20059;-72
2023/07/15 10:41:43;;;;;;;1999.90;999.90;;;;;;;32.07;51.69;97964.06;5091177;28;20020;-73
2023/07/15 10:44:14;;;;;;;1999.90;999.90;;;;;;;31.74;51.02;97962.31;5091712;28;20024;-73
2023/07/15 10:46:43;;;;;;;1999.90;999.90;;;;;;;31.67;51.39;97948.34;5096267;28;20024;-76